sensor_id;sensor_type;location;lat;lon;timestamp;temperature;humidity
12481;DHT22;6305;48.398;11.762;2023-01-28T00:01:50;-1.00;99.90
12481;DHT22;6305;48.398;11.762;2023-01-28T00:04:17;-1.00;99.90
12481;DHT22;6305;48.398;11.762;2023-01-28T00:06:44;-1.00;99.90
12481;DHT22;6305;48.398;11.762;2023-01-28T00:09:11;-1.10;99.90
12481;DHT22;6305;48.398;11.762;2023-01-28T00:11:38;-1.20;99.90
12481;DHT22;6305;48.398;11.762;2023-01-28T00:14:06;-1.20;99.90
12481;DHT22;6305;48.398;11.762;2023-01-28T00:16:33;-1.30;99.90
12481;DHT22;6305;48.398;11.762;2023-01-28T00:19:00;-1.30;99.90
12481;DHT22;6305;48.398;11.762;2023-01-28T00:21:27;-1.30;99.90
12481;DHT22;6305;48.398;11.762;2023-01-28T00:23:55;-1.40;99.90
12481;DHT22;6305;48.398;11.762;2023-01-28T00:26:23;-1.40;99.90
12481;DHT22;6305;48.398;11.762;2023-01-28T00:28:50;-1.40;99.90
12481;DHT22;6305;48.398;11.762;2023-01-28T00:31:20;-1.40;99.90
12481;DHT22;6305;48.398;11.762;2023-01-28T00:33:49;-1.40;99.90
12481;DHT22;6305;48.398;11.762;2023-01-28T00:36:17;-1.50;99.90
12481;DHT22;6305;48.398;11.762;2023-01-28T00:38:48;-1.50;99.90
12481;DHT22;6305;48.398;11.762;2023-01-28T00:41:17;-1.50;99.90
12481;DHT22;6305;48.398;11.762;2023-01-28T00:43:46;-1.50;99.90
12481;DHT22;6305;48.398;11.762;2023-01-28T00:46:14;-1.50;99.90
12481;DHT22;6305;48.398;11.762;2023-01-28T00:48:43;-1.50;99.90
12481;DHT22;6305;48.398;11.762;2023-01-28T00:51:13;-1.50;99.90
12481;DHT22;6305;48.398;11.762;2023-01-28T00:53:42;-1.60;99.90
12481;DHT22;6305;48.398;11.762;2023-01-28T00:56:13;-1.50;99.90
12481;DHT22;6305;48.398;11.762;2023-01-28T00:58:40;-1.60;99.90
12481;DHT22;6305;48.398;11.762;2023-01-28T01:01:08;-1.60;99.90
12481;DHT22;6305;48.398;11.762;2023-01-28T01:03:36;-1.60;99.90
12481;DHT22;6305;48.398;11.762;2023-01-28T01:06:05;-1.60;99.90
12481;DHT22;6305;48.398;11.762;2023-01-28T01:08:33;-1.60;99.90
12481;DHT22;6305;48.398;11.762;2023-01-28T01:11:08;-1.60;99.90
12481;DHT22;6305;48.398;11.762;2023-01-28T01:13:36;-1.60;99.90
12481;DHT22;6305;48.398;11.762;2023-01-28T01:16:05;-1.60;99.90
12481;DHT22;6305;48.398;11.762;2023-01-28T01:18:33;-1.70;99.90
12481;DHT22;6305;48.398;11.762;2023-01-28T01:21:00;-1.70;99.90
12481;DHT22;6305;48.398;11.762;2023-01-28T01:23:30;-1.70;99.90
12481;DHT22;6305;48.398;11.762;2023-01-28T01:25:57;-1.70;99.90
12481;DHT22;6305;48.398;11.762;2023-01-28T01:28:25;-1.80;99.90
12481;DHT22;6305;48.398;11.762;2023-01-28T01:30:58;-1.80;99.90
12481;DHT22;6305;48.398;11.762;2023-01-28T01:33:27;-1.90;99.90
12481;DHT22;6305;48.398;11.762;2023-01-28T01:35:54;-1.90;99.90
12481;DHT22;6305;48.398;11.762;2023-01-28T01:38:21;-2.00;99.90
12481;DHT22;6305;48.398;11.762;2023-01-28T01:40:49;-2.00;99.90
12481;DHT22;6305;48.398;11.762;2023-01-28T01:43:17;-2.00;99.90
12481;DHT22;6305;48.398;11.762;2023-01-28T01:45:46;-2.00;99.90
12481;DHT22;6305;48.398;11.762;2023-01-28T01:48:18;-2.00;99.90
12481;DHT22;6305;48.398;11.762;2023-01-28T01:50:50;-2.00;99.90
12481;DHT22;6305;48.398;11.762;2023-01-28T01:53:19;-2.00;99.90
12481;DHT22;6305;48.398;11.762;2023-01-28T01:55:50;-2.00;99.90
12481;DHT22;6305;48.398;11.762;2023-01-28T01:58:20;-2.10;99.90
12481;DHT22;6305;48.398;11.762;2023-01-28T02:00:48;-2.10;99.90
12481;DHT22;6305;48.398;11.762;2023-01-28T02:03:18;-2.10;99.90
12481;DHT22;6305;48.398;11.762;2023-01-28T02:05:48;-2.10;99.90
12481;DHT22;6305;48.398;11.762;2023-01-28T02:08:16;-2.10;99.90
12481;DHT22;6305;48.398;11.762;2023-01-28T02:10:55;-2.10;99.90
12481;DHT22;6305;48.398;11.762;2023-01-28T02:13:27;-2.00;99.90
12481;DHT22;6305;48.398;11.762;2023-01-28T02:15:59;-2.00;99.90
12481;DHT22;6305;48.398;11.762;2023-01-28T02:18:26;-1.90;99.90
12481;DHT22;6305;48.398;11.762;2023-01-28T02:24:15;-1.80;99.90
12481;DHT22;6305;48.398;11.762;2023-01-28T02:27:19;-1.80;99.90
12481;DHT22;6305;48.398;11.762;2023-01-28T02:29:56;-1.80;99.90
12481;DHT22;6305;48.398;11.762;2023-01-28T02:32:29;-1.70;99.90
12481;DHT22;6305;48.398;11.762;2023-01-28T02:35:06;-1.70;99.90
12481;DHT22;6305;48.398;11.762;2023-01-28T02:37:39;-1.70;99.90
12481;DHT22;6305;48.398;11.762;2023-01-28T02:40:12;-1.70;99.90
12481;DHT22;6305;48.398;11.762;2023-01-28T02:42:40;-1.70;99.90
12481;DHT22;6305;48.398;11.762;2023-01-28T02:45:18;-1.70;99.90
12481;DHT22;6305;48.398;11.762;2023-01-28T02:47:46;-1.60;99.90
12481;DHT22;6305;48.398;11.762;2023-01-28T02:50:32;-1.70;99.90
12481;DHT22;6305;48.398;11.762;2023-01-28T02:53:12;-1.70;99.90
12481;DHT22;6305;48.398;11.762;2023-01-28T02:56:06;-1.70;99.90
12481;DHT22;6305;48.398;11.762;2023-01-28T02:58:42;-1.70;99.90
12481;DHT22;6305;48.398;11.762;2023-01-28T03:01:17;-1.70;99.90
12481;DHT22;6305;48.398;11.762;2023-01-28T03:03:54;-1.80;99.90
12481;DHT22;6305;48.398;11.762;2023-01-28T03:06:25;-1.80;99.90
12481;DHT22;6305;48.398;11.762;2023-01-28T03:08:58;-1.90;99.90
12481;DHT22;6305;48.398;11.762;2023-01-28T03:11:46;-2.10;99.90
12481;DHT22;6305;48.398;11.762;2023-01-28T03:14:32;-2.20;99.90
12481;DHT22;6305;48.398;11.762;2023-01-28T03:17:21;-2.30;99.90
12481;DHT22;6305;48.398;11.762;2023-01-28T03:20:09;-2.30;99.90
12481;DHT22;6305;48.398;11.762;2023-01-28T03:22:59;-2.30;99.90
12481;DHT22;6305;48.398;11.762;2023-01-28T03:25:45;-2.40;99.90
12481;DHT22;6305;48.398;11.762;2023-01-28T03:28:33;-2.50;99.90
12481;DHT22;6305;48.398;11.762;2023-01-28T03:31:20;-2.60;99.90
12481;DHT22;6305;48.398;11.762;2023-01-28T03:34:08;-2.60;99.90
12481;DHT22;6305;48.398;11.762;2023-01-28T03:36:53;-2.50;99.90
12481;DHT22;6305;48.398;11.762;2023-01-28T03:39:47;-2.60;99.90
12481;DHT22;6305;48.398;11.762;2023-01-28T03:42:14;-2.60;99.90
12481;DHT22;6305;48.398;11.762;2023-01-28T03:45:02;-2.60;99.90
12481;DHT22;6305;48.398;11.762;2023-01-28T03:47:31;-2.50;99.90
12481;DHT22;6305;48.398;11.762;2023-01-28T03:50:02;-2.50;99.90
12481;DHT22;6305;48.398;11.762;2023-01-28T03:52:37;-2.40;99.90
12481;DHT22;6305;48.398;11.762;2023-01-28T03:55:30;-2.30;99.90
12481;DHT22;6305;48.398;11.762;2023-01-28T03:57:57;-2.30;99.90
12481;DHT22;6305;48.398;11.762;2023-01-28T04:00:24;-2.20;99.90
12481;DHT22;6305;48.398;11.762;2023-01-28T04:02:51;-2.20;99.90
12481;DHT22;6305;48.398;11.762;2023-01-28T04:05:20;-2.10;99.90
12481;DHT22;6305;48.398;11.762;2023-01-28T04:07:49;-2.10;99.90
12481;DHT22;6305;48.398;11.762;2023-01-28T04:10:33;-2.10;99.90
12481;DHT22;6305;48.398;11.762;2023-01-28T04:13:19;-2.10;99.90
12481;DHT22;6305;48.398;11.762;2023-01-28T04:15:46;-2.00;99.90
12481;DHT22;6305;48.398;11.762;2023-01-28T04:18:14;-2.00;99.90
12481;DHT22;6305;48.398;11.762;2023-01-28T04:20:43;-2.00;99.90
12481;DHT22;6305;48.398;11.762;2023-01-28T04:23:10;-2.00;99.90
12481;DHT22;6305;48.398;11.762;2023-01-28T04:25:37;-2.00;99.90
12481;DHT22;6305;48.398;11.762;2023-01-28T04:28:07;-1.90;99.90
12481;DHT22;6305;48.398;11.762;2023-01-28T04:30:34;-1.90;99.90
12481;DHT22;6305;48.398;11.762;2023-01-28T04:33:24;-1.90;99.90
12481;DHT22;6305;48.398;11.762;2023-01-28T04:36:04;-1.90;99.90
12481;DHT22;6305;48.398;11.762;2023-01-28T04:38:34;-1.90;99.90
12481;DHT22;6305;48.398;11.762;2023-01-28T04:41:20;-1.90;99.90
12481;DHT22;6305;48.398;11.762;2023-01-28T04:43:47;-1.90;99.90
12481;DHT22;6305;48.398;11.762;2023-01-28T04:46:33;-1.90;99.90
12481;DHT22;6305;48.398;11.762;2023-01-28T04:49:03;-1.80;99.90
12481;DHT22;6305;48.398;11.762;2023-01-28T04:51:42;-1.80;99.90
12481;DHT22;6305;48.398;11.762;2023-01-28T04:54:24;-1.80;99.90
12481;DHT22;6305;48.398;11.762;2023-01-28T04:56:54;-1.80;99.90
12481;DHT22;6305;48.398;11.762;2023-01-28T04:59:21;-1.80;99.90
12481;DHT22;6305;48.398;11.762;2023-01-28T05:01:50;-1.70;99.90
12481;DHT22;6305;48.398;11.762;2023-01-28T05:04:17;-1.70;99.90
12481;DHT22;6305;48.398;11.762;2023-01-28T05:06:46;-1.70;99.90
12481;DHT22;6305;48.398;11.762;2023-01-28T05:09:16;-1.70;99.90
12481;DHT22;6305;48.398;11.762;2023-01-28T05:11:43;-1.70;99.90
12481;DHT22;6305;48.398;11.762;2023-01-28T05:14:10;-1.60;99.90
12481;DHT22;6305;48.398;11.762;2023-01-28T05:16:44;-1.70;99.90
12481;DHT22;6305;48.398;11.762;2023-01-28T05:19:11;-1.60;99.90
12481;DHT22;6305;48.398;11.762;2023-01-28T05:21:40;-1.70;99.90
12481;DHT22;6305;48.398;11.762;2023-01-28T05:24:26;-1.60;99.90
12481;DHT22;6305;48.398;11.762;2023-01-28T05:26:52;-1.60;99.90
12481;DHT22;6305;48.398;11.762;2023-01-28T05:29:19;-1.60;99.90
12481;DHT22;6305;48.398;11.762;2023-01-28T05:31:47;-1.60;99.90
12481;DHT22;6305;48.398;11.762;2023-01-28T05:34:18;-1.60;99.90
12481;DHT22;6305;48.398;11.762;2023-01-28T05:36:45;-1.60;99.90
12481;DHT22;6305;48.398;11.762;2023-01-28T05:39:29;-1.60;99.90
12481;DHT22;6305;48.398;11.762;2023-01-28T05:41:57;-1.50;99.90
12481;DHT22;6305;48.398;11.762;2023-01-28T05:44:24;-1.50;99.90
12481;DHT22;6305;48.398;11.762;2023-01-28T05:47:07;-1.50;99.90
12481;DHT22;6305;48.398;11.762;2023-01-28T05:49:52;-1.50;99.90
12481;DHT22;6305;48.398;11.762;2023-01-28T05:52:55;-1.50;99.90
12481;DHT22;6305;48.398;11.762;2023-01-28T05:55:28;-1.40;99.90
12481;DHT22;6305;48.398;11.762;2023-01-28T05:57:55;-1.40;99.90
12481;DHT22;6305;48.398;11.762;2023-01-28T06:00:24;-1.40;99.90
12481;DHT22;6305;48.398;11.762;2023-01-28T06:02:51;-1.40;99.90
12481;DHT22;6305;48.398;11.762;2023-01-28T06:05:19;-1.30;99.90
12481;DHT22;6305;48.398;11.762;2023-01-28T06:07:47;-1.40;99.90
12481;DHT22;6305;48.398;11.762;2023-01-28T06:10:15;-1.30;99.90
12481;DHT22;6305;48.398;11.762;2023-01-28T06:12:44;-1.40;99.90
12481;DHT22;6305;48.398;11.762;2023-01-28T06:15:29;-1.40;99.90
12481;DHT22;6305;48.398;11.762;2023-01-28T06:18:17;-1.30;99.90
12481;DHT22;6305;48.398;11.762;2023-01-28T06:20:44;-1.30;99.90
12481;DHT22;6305;48.398;11.762;2023-01-28T06:23:11;-1.40;99.90
12481;DHT22;6305;48.398;11.762;2023-01-28T06:25:37;-1.40;99.90
12481;DHT22;6305;48.398;11.762;2023-01-28T06:28:10;-1.30;99.90
12481;DHT22;6305;48.398;11.762;2023-01-28T06:30:37;-1.40;99.90
12481;DHT22;6305;48.398;11.762;2023-01-28T06:33:04;-1.30;99.90
12481;DHT22;6305;48.398;11.762;2023-01-28T06:35:31;-1.30;99.90
12481;DHT22;6305;48.398;11.762;2023-01-28T06:37:58;-1.30;99.90
12481;DHT22;6305;48.398;11.762;2023-01-28T06:40:24;-1.30;99.90
12481;DHT22;6305;48.398;11.762;2023-01-28T06:42:51;-1.30;99.90
12481;DHT22;6305;48.398;11.762;2023-01-28T06:45:20;-1.30;99.90
12481;DHT22;6305;48.398;11.762;2023-01-28T06:47:46;-1.30;99.90
12481;DHT22;6305;48.398;11.762;2023-01-28T06:50:13;-1.30;99.90
12481;DHT22;6305;48.398;11.762;2023-01-28T06:52:41;-1.30;99.90
12481;DHT22;6305;48.398;11.762;2023-01-28T06:55:08;-1.30;99.90
12481;DHT22;6305;48.398;11.762;2023-01-28T06:57:37;-1.20;99.90
12481;DHT22;6305;48.398;11.762;2023-01-28T07:00:05;-1.30;99.90
12481;DHT22;6305;48.398;11.762;2023-01-28T07:02:34;-1.30;99.90
12481;DHT22;6305;48.398;11.762;2023-01-28T07:05:01;-1.20;99.90
12481;DHT22;6305;48.398;11.762;2023-01-28T07:07:28;-1.20;99.90
12481;DHT22;6305;48.398;11.762;2023-01-28T07:09:55;-1.20;99.90
12481;DHT22;6305;48.398;11.762;2023-01-28T07:12:22;-1.20;99.90
12481;DHT22;6305;48.398;11.762;2023-01-28T07:14:49;-1.10;99.90
12481;DHT22;6305;48.398;11.762;2023-01-28T07:17:16;-1.10;99.90
12481;DHT22;6305;48.398;11.762;2023-01-28T07:19:47;-1.10;99.90
12481;DHT22;6305;48.398;11.762;2023-01-28T07:22:14;-1.10;99.90
12481;DHT22;6305;48.398;11.762;2023-01-28T07:24:41;-1.00;99.90
12481;DHT22;6305;48.398;11.762;2023-01-28T07:27:08;-1.00;99.90
12481;DHT22;6305;48.398;11.762;2023-01-28T07:29:35;-1.00;99.90
12481;DHT22;6305;48.398;11.762;2023-01-28T07:32:02;-0.90;99.90
12481;DHT22;6305;48.398;11.762;2023-01-28T07:34:34;-0.90;99.90
12481;DHT22;6305;48.398;11.762;2023-01-28T07:37:05;-0.90;99.90
12481;DHT22;6305;48.398;11.762;2023-01-28T07:39:32;-0.80;99.90
12481;DHT22;6305;48.398;11.762;2023-01-28T07:42:00;-0.70;99.90
12481;DHT22;6305;48.398;11.762;2023-01-28T07:44:38;-0.70;99.90
12481;DHT22;6305;48.398;11.762;2023-01-28T07:47:05;-0.60;99.90
12481;DHT22;6305;48.398;11.762;2023-01-28T07:49:33;-0.50;99.90
12481;DHT22;6305;48.398;11.762;2023-01-28T07:52:00;-0.40;99.90
12481;DHT22;6305;48.398;11.762;2023-01-28T07:54:28;-0.30;99.90
12481;DHT22;6305;48.398;11.762;2023-01-28T07:56:55;-0.20;99.90
12481;DHT22;6305;48.398;11.762;2023-01-28T07:59:24;-0.10;99.90
12481;DHT22;6305;48.398;11.762;2023-01-28T08:01:51;0.00;99.90
12481;DHT22;6305;48.398;11.762;2023-01-28T08:04:18;0.10;99.90
12481;DHT22;6305;48.398;11.762;2023-01-28T08:06:45;0.10;99.90
12481;DHT22;6305;48.398;11.762;2023-01-28T08:09:12;0.20;99.90
12481;DHT22;6305;48.398;11.762;2023-01-28T08:11:41;0.30;99.90
12481;DHT22;6305;48.398;11.762;2023-01-28T08:14:09;0.30;99.90
12481;DHT22;6305;48.398;11.762;2023-01-28T08:16:36;0.40;99.90
12481;DHT22;6305;48.398;11.762;2023-01-28T08:19:04;0.40;99.90
12481;DHT22;6305;48.398;11.762;2023-01-28T08:21:31;0.40;99.90
12481;DHT22;6305;48.398;11.762;2023-01-28T08:23:58;0.50;99.90
12481;DHT22;6305;48.398;11.762;2023-01-28T08:26:25;0.50;99.90
12481;DHT22;6305;48.398;11.762;2023-01-28T08:28:53;0.50;99.90
12481;DHT22;6305;48.398;11.762;2023-01-28T08:31:20;0.50;99.90
12481;DHT22;6305;48.398;11.762;2023-01-28T08:33:47;0.50;99.90
12481;DHT22;6305;48.398;11.762;2023-01-28T08:36:14;0.40;99.90
12481;DHT22;6305;48.398;11.762;2023-01-28T08:38:41;0.40;99.90
12481;DHT22;6305;48.398;11.762;2023-01-28T08:41:08;0.40;99.90
12481;DHT22;6305;48.398;11.762;2023-01-28T08:43:35;0.50;99.90
12481;DHT22;6305;48.398;11.762;2023-01-28T08:46:05;0.50;99.90
12481;DHT22;6305;48.398;11.762;2023-01-28T08:48:32;0.50;99.90
12481;DHT22;6305;48.398;11.762;2023-01-28T08:50:59;0.50;99.90
12481;DHT22;6305;48.398;11.762;2023-01-28T08:53:26;0.50;99.90
12481;DHT22;6305;48.398;11.762;2023-01-28T08:55:53;0.60;99.90
12481;DHT22;6305;48.398;11.762;2023-01-28T08:58:20;0.70;99.90
12481;DHT22;6305;48.398;11.762;2023-01-28T09:00:48;0.70;99.90
12481;DHT22;6305;48.398;11.762;2023-01-28T09:03:16;0.80;99.90
12481;DHT22;6305;48.398;11.762;2023-01-28T09:05:43;0.90;99.90
12481;DHT22;6305;48.398;11.762;2023-01-28T09:08:12;1.10;99.90
12481;DHT22;6305;48.398;11.762;2023-01-28T09:10:40;1.40;99.90
12481;DHT22;6305;48.398;11.762;2023-01-28T09:13:09;1.70;99.90
12481;DHT22;6305;48.398;11.762;2023-01-28T09:15:37;2.00;99.90
12481;DHT22;6305;48.398;11.762;2023-01-28T09:18:04;2.20;99.90
12481;DHT22;6305;48.398;11.762;2023-01-28T09:20:33;2.30;99.90
12481;DHT22;6305;48.398;11.762;2023-01-28T09:23:00;2.40;99.90
12481;DHT22;6305;48.398;11.762;2023-01-28T09:25:28;2.50;99.90
12481;DHT22;6305;48.398;11.762;2023-01-28T09:27:55;2.60;99.90
12481;DHT22;6305;48.398;11.762;2023-01-28T09:30:22;2.60;99.90
12481;DHT22;6305;48.398;11.762;2023-01-28T09:32:50;2.80;99.90
12481;DHT22;6305;48.398;11.762;2023-01-28T09:35:17;2.80;99.90
12481;DHT22;6305;48.398;11.762;2023-01-28T09:37:46;2.90;99.90
12481;DHT22;6305;48.398;11.762;2023-01-28T09:40:16;3.10;99.90
12481;DHT22;6305;48.398;11.762;2023-01-28T09:42:58;3.10;99.90
12481;DHT22;6305;48.398;11.762;2023-01-28T09:45:32;3.20;99.90
12481;DHT22;6305;48.398;11.762;2023-01-28T09:48:04;3.10;99.90
12481;DHT22;6305;48.398;11.762;2023-01-28T09:50:33;3.10;99.90
12481;DHT22;6305;48.398;11.762;2023-01-28T09:53:06;2.90;99.90
12481;DHT22;6305;48.398;11.762;2023-01-28T09:55:38;2.70;99.90
12481;DHT22;6305;48.398;11.762;2023-01-28T09:58:10;2.80;99.90
12481;DHT22;6305;48.398;11.762;2023-01-28T10:50:33;4.90;99.90
12481;DHT22;6305;48.398;11.762;2023-01-28T10:53:02;4.80;99.90
12481;DHT22;6305;48.398;11.762;2023-01-28T10:55:37;4.80;99.90
12481;DHT22;6305;48.398;11.762;2023-01-28T10:58:15;4.80;99.90
12481;DHT22;6305;48.398;11.762;2023-01-28T11:00:43;4.70;99.90
12481;DHT22;6305;48.398;11.762;2023-01-28T11:03:16;4.40;99.90
12481;DHT22;6305;48.398;11.762;2023-01-28T11:05:51;4.20;99.90
12481;DHT22;6305;48.398;11.762;2023-01-28T11:08:19;4.00;99.90
12481;DHT22;6305;48.398;11.762;2023-01-28T11:10:47;3.90;99.90
12481;DHT22;6305;48.398;11.762;2023-01-28T11:13:17;3.80;99.90
12481;DHT22;6305;48.398;11.762;2023-01-28T11:15:48;3.50;99.90
12481;DHT22;6305;48.398;11.762;2023-01-28T11:18:18;3.30;99.90
12481;DHT22;6305;48.398;11.762;2023-01-28T11:20:52;3.20;99.90
12481;DHT22;6305;48.398;11.762;2023-01-28T11:23:23;3.20;99.90
12481;DHT22;6305;48.398;11.762;2023-01-28T11:25:59;3.30;99.90
12481;DHT22;6305;48.398;11.762;2023-01-28T11:28:28;3.30;99.90
12481;DHT22;6305;48.398;11.762;2023-01-28T11:30:57;3.20;99.90
12481;DHT22;6305;48.398;11.762;2023-01-28T11:33:30;3.20;99.90
12481;DHT22;6305;48.398;11.762;2023-01-28T11:36:05;3.20;99.90
12481;DHT22;6305;48.398;11.762;2023-01-28T11:38:32;3.30;99.90
12481;DHT22;6305;48.398;11.762;2023-01-28T11:41:00;3.40;99.90
12481;DHT22;6305;48.398;11.762;2023-01-28T11:43:29;3.40;99.90
12481;DHT22;6305;48.398;11.762;2023-01-28T11:46:07;3.40;99.90
12481;DHT22;6305;48.398;11.762;2023-01-28T11:48:45;3.50;99.90
12481;DHT22;6305;48.398;11.762;2023-01-28T11:51:27;3.50;99.90
12481;DHT22;6305;48.398;11.762;2023-01-28T11:54:02;3.40;99.90
12481;DHT22;6305;48.398;11.762;2023-01-28T11:56:43;3.40;99.90
12481;DHT22;6305;48.398;11.762;2023-01-28T11:59:35;3.20;99.90
12481;DHT22;6305;48.398;11.762;2023-01-28T12:02:13;3.00;99.90
12481;DHT22;6305;48.398;11.762;2023-01-28T12:04:53;3.00;99.90
12481;DHT22;6305;48.398;11.762;2023-01-28T12:07:33;2.90;99.90
12481;DHT22;6305;48.398;11.762;2023-01-28T12:10:10;2.90;99.90
12481;DHT22;6305;48.398;11.762;2023-01-28T12:12:53;2.90;99.90
12481;DHT22;6305;48.398;11.762;2023-01-28T12:18:51;2.90;99.90
12481;DHT22;6305;48.398;11.762;2023-01-28T12:21:29;2.80;99.90
12481;DHT22;6305;48.398;11.762;2023-01-28T12:24:11;2.60;99.90
12481;DHT22;6305;48.398;11.762;2023-01-28T12:26:45;2.60;99.90
12481;DHT22;6305;48.398;11.762;2023-01-28T12:29:26;2.60;99.90
12481;DHT22;6305;48.398;11.762;2023-01-28T12:32:07;2.60;99.90
12481;DHT22;6305;48.398;11.762;2023-01-28T12:34:58;2.60;99.90
12481;DHT22;6305;48.398;11.762;2023-01-28T12:37:38;2.70;99.90
12481;DHT22;6305;48.398;11.762;2023-01-28T12:40:21;2.80;99.90
12481;DHT22;6305;48.398;11.762;2023-01-28T12:42:57;2.90;99.90
12481;DHT22;6305;48.398;11.762;2023-01-28T12:45:32;2.80;99.90
12481;DHT22;6305;48.398;11.762;2023-01-28T12:48:06;2.70;99.90
12481;DHT22;6305;48.398;11.762;2023-01-28T12:50:38;2.70;99.90
12481;DHT22;6305;48.398;11.762;2023-01-28T12:53:18;2.70;99.90
12481;DHT22;6305;48.398;11.762;2023-01-28T12:55:52;2.80;99.90
12481;DHT22;6305;48.398;11.762;2023-01-28T12:58:22;2.90;99.90
12481;DHT22;6305;48.398;11.762;2023-01-28T13:00:51;3.10;99.90
12481;DHT22;6305;48.398;11.762;2023-01-28T13:03:25;3.10;99.90
12481;DHT22;6305;48.398;11.762;2023-01-28T13:05:56;3.00;99.90
12481;DHT22;6305;48.398;11.762;2023-01-28T13:08:26;3.10;99.90
12481;DHT22;6305;48.398;11.762;2023-01-28T13:10:56;3.20;99.90
12481;DHT22;6305;48.398;11.762;2023-01-28T13:13:28;3.20;99.90
12481;DHT22;6305;48.398;11.762;2023-01-28T13:15:56;3.20;99.90
12481;DHT22;6305;48.398;11.762;2023-01-28T13:18:32;3.10;99.90
12481;DHT22;6305;48.398;11.762;2023-01-28T13:21:01;3.10;99.90
12481;DHT22;6305;48.398;11.762;2023-01-28T13:23:38;3.00;99.90
12481;DHT22;6305;48.398;11.762;2023-01-28T13:26:24;3.00;99.90
12481;DHT22;6305;48.398;11.762;2023-01-28T13:28:53;3.20;99.90
12481;DHT22;6305;48.398;11.762;2023-01-28T13:31:22;3.40;99.90
12481;DHT22;6305;48.398;11.762;2023-01-28T13:34:00;3.60;99.90
12481;DHT22;6305;48.398;11.762;2023-01-28T13:36:29;3.80;99.90
12481;DHT22;6305;48.398;11.762;2023-01-28T13:39:01;3.70;99.90
12481;DHT22;6305;48.398;11.762;2023-01-28T13:41:39;3.60;99.90
12481;DHT22;6305;48.398;11.762;2023-01-28T13:44:17;3.30;99.90
12481;DHT22;6305;48.398;11.762;2023-01-28T13:46:45;3.20;99.90
12481;DHT22;6305;48.398;11.762;2023-01-28T13:49:16;3.00;99.90
12481;DHT22;6305;48.398;11.762;2023-01-28T13:51:57;2.90;99.90
12481;DHT22;6305;48.398;11.762;2023-01-28T13:54:26;2.70;99.90
12481;DHT22;6305;48.398;11.762;2023-01-28T13:57:08;2.50;99.90
12481;DHT22;6305;48.398;11.762;2023-01-28T13:59:48;2.40;99.90
12481;DHT22;6305;48.398;11.762;2023-01-28T14:02:47;2.30;99.90
12481;DHT22;6305;48.398;11.762;2023-01-28T14:05:40;2.20;99.90
12481;DHT22;6305;48.398;11.762;2023-01-28T14:08:36;2.10;99.90
12481;DHT22;6305;48.398;11.762;2023-01-28T14:11:31;2.00;99.90
12481;DHT22;6305;48.398;11.762;2023-01-28T14:14:27;1.90;99.90
12481;DHT22;6305;48.398;11.762;2023-01-28T14:16:59;1.80;99.90
12481;DHT22;6305;48.398;11.762;2023-01-28T14:19:33;1.70;99.90
12481;DHT22;6305;48.398;11.762;2023-01-28T14:22:05;1.60;99.90
12481;DHT22;6305;48.398;11.762;2023-01-28T14:24:32;1.50;99.90
12481;DHT22;6305;48.398;11.762;2023-01-28T14:27:04;1.50;99.90
12481;DHT22;6305;48.398;11.762;2023-01-28T14:29:45;1.40;99.90
12481;DHT22;6305;48.398;11.762;2023-01-28T14:32:16;1.40;99.90
12481;DHT22;6305;48.398;11.762;2023-01-28T14:34:45;1.30;99.90
12481;DHT22;6305;48.398;11.762;2023-01-28T14:37:14;1.20;99.90
12481;DHT22;6305;48.398;11.762;2023-01-28T14:39:45;1.20;99.90
12481;DHT22;6305;48.398;11.762;2023-01-28T14:42:18;1.10;99.90
12481;DHT22;6305;48.398;11.762;2023-01-28T14:44:49;1.10;99.90
12481;DHT22;6305;48.398;11.762;2023-01-28T14:47:38;1.10;99.90
12481;DHT22;6305;48.398;11.762;2023-01-28T14:50:27;1.00;99.90
12481;DHT22;6305;48.398;11.762;2023-01-28T14:53:33;1.00;99.90
12481;DHT22;6305;48.398;11.762;2023-01-28T14:56:13;0.90;99.90
12481;DHT22;6305;48.398;11.762;2023-01-28T14:58:44;0.90;99.90
12481;DHT22;6305;48.398;11.762;2023-01-28T15:01:22;0.90;99.90
12481;DHT22;6305;48.398;11.762;2023-01-28T15:03:49;0.80;99.90
12481;DHT22;6305;48.398;11.762;2023-01-28T15:06:18;0.80;99.90
12481;DHT22;6305;48.398;11.762;2023-01-28T15:08:46;0.80;99.90
12481;DHT22;6305;48.398;11.762;2023-01-28T15:11:15;0.70;99.90
12481;DHT22;6305;48.398;11.762;2023-01-28T15:13:45;0.70;99.90
12481;DHT22;6305;48.398;11.762;2023-01-28T15:16:18;0.70;99.90
12481;DHT22;6305;48.398;11.762;2023-01-28T15:18:48;0.70;99.90
12481;DHT22;6305;48.398;11.762;2023-01-28T15:21:19;0.70;99.90
12481;DHT22;6305;48.398;11.762;2023-01-28T15:23:49;0.60;99.90
12481;DHT22;6305;48.398;11.762;2023-01-28T15:26:20;0.60;99.90
12481;DHT22;6305;48.398;11.762;2023-01-28T15:28:48;0.60;99.90
12481;DHT22;6305;48.398;11.762;2023-01-28T15:31:21;0.50;99.90
12481;DHT22;6305;48.398;11.762;2023-01-28T15:34:00;0.50;99.90
12481;DHT22;6305;48.398;11.762;2023-01-28T15:36:29;0.40;99.90
12481;DHT22;6305;48.398;11.762;2023-01-28T15:38:56;0.40;99.90
12481;DHT22;6305;48.398;11.762;2023-01-28T15:41:27;0.40;99.90
12481;DHT22;6305;48.398;11.762;2023-01-28T15:43:55;0.40;99.90
12481;DHT22;6305;48.398;11.762;2023-01-28T15:46:22;0.30;99.90
12481;DHT22;6305;48.398;11.762;2023-01-28T15:48:53;0.30;99.90
12481;DHT22;6305;48.398;11.762;2023-01-28T15:51:25;0.30;99.90
12481;DHT22;6305;48.398;11.762;2023-01-28T15:53:55;0.20;99.90
12481;DHT22;6305;48.398;11.762;2023-01-28T15:56:25;0.20;99.90
12481;DHT22;6305;48.398;11.762;2023-01-28T15:58:52;0.20;99.90
12481;DHT22;6305;48.398;11.762;2023-01-28T16:01:21;0.20;99.90
12481;DHT22;6305;48.398;11.762;2023-01-28T16:03:59;0.20;99.90
12481;DHT22;6305;48.398;11.762;2023-01-28T16:06:32;0.20;99.90
12481;DHT22;6305;48.398;11.762;2023-01-28T16:09:02;0.20;99.90
12481;DHT22;6305;48.398;11.762;2023-01-28T16:11:31;0.20;99.90
12481;DHT22;6305;48.398;11.762;2023-01-28T16:13:59;0.10;99.90
12481;DHT22;6305;48.398;11.762;2023-01-28T16:16:29;0.10;99.90
12481;DHT22;6305;48.398;11.762;2023-01-28T16:18:56;0.10;99.90
12481;DHT22;6305;48.398;11.762;2023-01-28T16:21:24;0.10;99.90
12481;DHT22;6305;48.398;11.762;2023-01-28T16:23:59;0.00;99.90
12481;DHT22;6305;48.398;11.762;2023-01-28T16:26:28;0.00;99.90
12481;DHT22;6305;48.398;11.762;2023-01-28T16:28:55;0.00;99.90
12481;DHT22;6305;48.398;11.762;2023-01-28T16:31:23;0.00;99.90
12481;DHT22;6305;48.398;11.762;2023-01-28T16:33:50;0.00;99.90
12481;DHT22;6305;48.398;11.762;2023-01-28T16:36:17;-0.10;99.90
12481;DHT22;6305;48.398;11.762;2023-01-28T16:38:44;0.00;99.90
12481;DHT22;6305;48.398;11.762;2023-01-28T16:41:17;0.00;99.90
12481;DHT22;6305;48.398;11.762;2023-01-28T16:43:46;-0.10;99.90
12481;DHT22;6305;48.398;11.762;2023-01-28T16:46:13;0.00;99.90
12481;DHT22;6305;48.398;11.762;2023-01-28T16:48:40;0.00;99.90
12481;DHT22;6305;48.398;11.762;2023-01-28T16:51:13;0.00;99.90
12481;DHT22;6305;48.398;11.762;2023-01-28T16:53:41;0.00;99.90
12481;DHT22;6305;48.398;11.762;2023-01-28T16:56:11;0.00;99.90
12481;DHT22;6305;48.398;11.762;2023-01-28T16:58:40;0.00;99.90
12481;DHT22;6305;48.398;11.762;2023-01-28T17:01:07;0.00;99.90
12481;DHT22;6305;48.398;11.762;2023-01-28T17:03:33;0.00;99.90
12481;DHT22;6305;48.398;11.762;2023-01-28T17:06:00;0.00;99.90